Pagrindinis puslapis
METAR-TAF:

METAR-TAF

Oro uostai :

Kairas, Egiptas

platuma: 30-08N, ilguma: 031-24E, Aukštis: 64 m

Dabartinis oras

Ataskaita buvo paskelbta 52 minutes, ne 04:00 UTC
Vėjas 6 kt iš Pietvakarių
Temperatūra 11°C
Drėgmė 76%
Slėgis 1018 hPa
Matomumas 10 km arba daugiau
Išsisklaidę debesys ne aukštis 2500 ft

METAR: HECA 220400Z 23006KT 9999 SCT025 11/07 Q1018 NOSIG

Laikas: 06:52 (04:52 UTC)

Prognozė

Ataskaita buvo paskelbta 5 valandos ir 42 minutes, ne 23:10 UTC
Prognozė galioja nuo 22 metu 00 UTC su 23 metu 06 UTC
Vėjas 10 kt iš Vakarų
Matomumas 10 km arba daugiau
Išsisklaidę debesys ne aukštis 2500 ft
Laikinai
nuo 22 metu 00 UTC su 22 metu 06 UTC
Vėjas 3 kt nuo kintamojo kryptimis
Laikinai
nuo 22 metu 06 UTC su 22 metu 18 UTC
Vėjas 8 kt iš Vakarų su gūsio iki 18 kt
Matomumas: 6000 m
Su prošvaistėmis ne aukštis 2500 ft

TAF: HECA 212310Z 2200/2306 27010KT 9999 SCT025 TEMPO 2200/2206 VRB03KT 2000BR TEMPO 2206/2218 26008G18KT 6000 BKN025

Orai ataskaitas ir orų prognozės (METAR, TAF).

turimą stotys yra geltonos ir raudonos taškus žemėlapyje.

Perkelti pele per norėdami pamatyti stoties vardą.

Tada spustelėkite, norėdami matyti oro stebėjimo ir prognozės.

Norėdami pakeisti žemėlapį: spustelėkite ant žalios mygtukų su juodo kryžiaus žemyn,; žalią mygtuką su brūkšneliu, jei norite nutolinti; arba žalių rodyklių gretimoms žemėlapius.


METAR-TAF: